createdAt,value
2018-03-19T00:01:28.353Z,9.45
2018-03-19T00:04:07.050Z,7.80
2018-03-19T00:06:44.757Z,8.00
2018-03-19T00:09:14.864Z,7.65
2018-03-19T00:11:46.428Z,8.95
2018-03-19T00:14:14.447Z,8.98
2018-03-19T00:17:06.386Z,9.18
2018-03-19T00:19:35.301Z,8.55
2018-03-19T00:22:07.997Z,8.02
2018-03-19T00:24:49.317Z,6.50
2018-03-19T00:27:20.733Z,7.72
2018-03-19T00:29:50.729Z,8.10
2018-03-19T00:32:18.744Z,8.55
2018-03-19T00:34:53.809Z,7.60
2018-03-19T00:37:24.840Z,9.07
2018-03-19T00:40:04.193Z,7.50
2018-03-19T00:42:45.733Z,7.65
2018-03-19T00:45:16.432Z,7.12
2018-03-19T00:47:44.449Z,6.95
2018-03-19T00:53:07.714Z,8.18
2018-03-19T00:55:36.514Z,7.82
2018-03-19T00:58:16.689Z,7.37
2018-03-19T01:00:55.636Z,7.12
2018-03-19T01:03:35.557Z,7.80
2018-03-19T01:06:04.492Z,7.35
2018-03-19T01:08:39.173Z,8.63
2018-03-19T01:11:17.913Z,7.95
2018-03-19T01:13:46.936Z,7.70
2018-03-19T01:16:19.908Z,9.35
2018-03-19T01:18:56.253Z,7.75
2018-03-19T01:21:35.913Z,7.45
2018-03-19T01:24:03.925Z,8.55
2018-03-19T01:26:32.721Z,7.22
2018-03-19T01:29:20.568Z,8.48
2018-03-19T01:32:00.212Z,8.30
2018-03-19T01:34:28.768Z,9.02
2018-03-19T01:36:57.551Z,6.93
2018-03-19T01:39:25.566Z,6.57
2018-03-19T01:41:59.401Z,7.70
2018-03-19T01:44:30.641Z,7.55
2018-03-19T01:46:59.628Z,7.00
2018-03-19T01:49:27.636Z,6.82
2018-03-19T01:51:57.812Z,7.35
2018-03-19T01:54:35.904Z,8.40
2018-03-19T01:57:05.830Z,7.72
2018-03-19T01:59:35.748Z,9.43
2018-03-19T02:02:05.776Z,8.60
2018-03-19T02:04:34.752Z,8.57
2018-03-19T02:07:02.760Z,9.15
2018-03-19T02:09:33.456Z,7.87
2018-03-19T02:12:08.760Z,8.65
2018-03-19T02:14:38.733Z,8.80
2018-03-19T02:17:14.336Z,8.35
2018-03-19T02:19:46.756Z,8.50
2018-03-19T02:22:25.233Z,8.55
2018-03-19T02:24:54.236Z,8.25
2018-03-19T02:27:36.604Z,7.40
2018-03-19T02:30:04.612Z,8.07
2018-03-19T02:32:34.651Z,8.60
2018-03-19T02:35:02.688Z,8.85
2018-03-19T02:37:34.416Z,9.05
2018-03-19T02:40:03.355Z,9.05
2018-03-19T02:42:35.019Z,8.88
2018-03-19T02:45:03.059Z,8.57
2018-03-19T02:47:46.030Z,8.43
2018-03-19T02:50:14.048Z,8.57
2018-03-19T02:52:50.505Z,8.50
2018-03-19T02:55:18.537Z,10.00
2018-03-19T02:58:04.114Z,7.70
2018-03-19T03:00:41.166Z,8.07
2018-03-19T03:03:10.143Z,7.28
2018-03-19T03:05:40.096Z,8.25
2018-03-19T03:08:10.089Z,7.95
2018-03-19T03:10:45.524Z,8.13
2018-03-19T03:13:14.536Z,8.40
2018-03-19T03:15:42.536Z,8.38
2018-03-19T03:18:31.823Z,8.18
2018-03-19T03:21:07.579Z,6.65
2018-03-19T03:23:45.479Z,8.50
2018-03-19T03:26:20.056Z,7.65
2018-03-19T03:28:53.755Z,7.72
2018-03-19T03:31:26.011Z,8.90
2018-03-19T03:33:55.003Z,8.88
2018-03-19T03:36:23.996Z,9.57
2018-03-19T03:38:52.976Z,8.82
2018-03-19T03:41:22.895Z,8.50
2018-03-19T03:44:00.864Z,7.70
2018-03-19T03:49:23.191Z,7.72
2018-03-19T03:51:52.010Z,7.20
2018-03-19T03:54:41.575Z,7.75
2018-03-19T03:57:23.984Z,7.85
2018-03-19T04:02:46.076Z,7.70
2018-03-19T04:05:22.015Z,7.95
2018-03-19T04:10:46.123Z,7.75
2018-03-19T04:19:15.903Z,8.88
2018-03-19T04:21:46.611Z,9.32
2018-03-19T04:24:35.015Z,8.20
2018-03-19T04:27:13.331Z,8.05
2018-03-19T04:29:43.287Z,8.23
2018-03-19T04:32:23.775Z,8.05
2018-03-19T04:35:16.032Z,8.15
2018-03-19T04:37:44.053Z,9.27
2018-03-19T04:40:32.555Z,8.48
2018-03-19T04:43:04.325Z,8.50
2018-03-19T04:45:40.687Z,8.68
2018-03-19T04:48:09.720Z,8.50
2018-03-19T04:50:37.767Z,7.90
2018-03-19T04:56:02.588Z,8.20
2018-03-19T04:58:36.187Z,8.05
2018-03-19T05:01:22.519Z,8.40
2018-03-19T05:04:07.399Z,9.10
2018-03-19T05:06:36.179Z,8.05
2018-03-19T05:09:08.631Z,8.50
2018-03-19T05:11:36.651Z,8.93
2018-03-19T05:14:08.263Z,8.07
2018-03-19T05:16:49.668Z,8.57
2018-03-19T05:19:24.747Z,8.50
2018-03-19T05:21:58.631Z,6.82
2018-03-19T05:24:32.603Z,8.60
2018-03-19T05:27:05.939Z,7.40
2018-03-19T05:29:33.949Z,8.18
2018-03-19T05:32:07.631Z,8.40
2018-03-19T05:34:38.703Z,8.98
2018-03-19T05:37:10.349Z,9.93
2018-03-19T05:39:38.398Z,7.45
2018-03-19T05:42:06.399Z,8.90
2018-03-19T05:44:37.615Z,7.05
2018-03-19T05:47:06.611Z,7.40
2018-03-19T05:49:34.627Z,9.23
2018-03-19T05:52:03.403Z,6.57
2018-03-19T05:54:34.107Z,7.25
2018-03-19T05:57:15.550Z,7.95
2018-03-19T05:59:45.491Z,9.20
2018-03-19T06:02:15.414Z,8.20
2018-03-19T06:04:44.331Z,7.90
2018-03-19T06:07:26.092Z,8.70
2018-03-19T06:09:58.559Z,8.10
2018-03-19T06:12:32.391Z,8.05
2018-03-19T06:15:03.923Z,7.60
2018-03-19T06:17:46.077Z,7.22
2018-03-19T06:20:16.046Z,7.55
2018-03-19T06:22:48.123Z,8.23
2018-03-19T06:25:27.416Z,6.85
2018-03-19T06:28:06.180Z,6.90
2018-03-19T06:30:45.771Z,8.38
2018-03-19T06:33:13.799Z,7.82
2018-03-19T06:35:42.751Z,8.43
2018-03-19T06:38:10.759Z,9.07
2018-03-19T06:40:45.275Z,8.55
2018-03-19T06:43:27.182Z,8.35
2018-03-19T06:46:04.195Z,8.07
2018-03-19T06:48:47.015Z,8.32
2018-03-19T06:51:23.527Z,8.65
2018-03-19T06:53:52.490Z,8.90
2018-03-19T06:56:27.716Z,8.10
2018-03-19T06:59:03.482Z,8.30
2018-03-19T07:01:52.630Z,7.07
2018-03-19T07:04:21.654Z,7.00
2018-03-19T07:06:51.683Z,8.57
2018-03-19T07:09:25.198Z,8.88
2018-03-19T07:11:53.982Z,7.45
2018-03-19T07:14:26.090Z,9.30
2018-03-19T07:16:55.131Z,9.00
2018-03-19T07:19:27.999Z,7.90
2018-03-19T07:21:56.990Z,7.80
2018-03-19T07:24:25.020Z,8.18
2018-03-19T07:26:53.103Z,8.75
2018-03-19T07:29:28.558Z,9.20
2018-03-19T07:32:01.986Z,8.85
2018-03-19T07:34:31.987Z,7.75
2018-03-19T07:37:00.074Z,8.40
2018-03-19T07:39:33.823Z,9.60
2018-03-19T07:42:01.831Z,9.93
2018-03-19T07:44:33.579Z,8.20
2018-03-19T07:47:01.582Z,8.93
2018-03-19T07:49:32.278Z,7.85
2018-03-19T07:52:05.946Z,7.87
2018-03-19T07:54:33.946Z,9.05
2018-03-19T07:57:03.859Z,8.70
2018-03-19T07:59:31.874Z,8.45
2018-03-19T08:02:12.875Z,10.27
2018-03-19T08:04:43.194Z,11.12
2018-03-19T08:07:13.170Z,8.98
2018-03-19T08:09:46.790Z,9.98
2018-03-19T08:12:15.597Z,7.03
2018-03-19T08:14:46.310Z,8.18
2018-03-19T08:17:15.078Z,8.05
2018-03-19T08:19:51.606Z,8.80
2018-03-19T08:22:20.598Z,9.88
2018-03-19T08:24:53.254Z,9.40
2018-03-19T08:27:28.634Z,8.93
2018-03-19T08:29:59.682Z,8.65
2018-03-19T08:32:29.587Z,8.25
2018-03-19T08:34:57.593Z,9.85
2018-03-19T08:37:28.278Z,8.82
2018-03-19T08:39:56.294Z,9.00
2018-03-19T08:42:24.290Z,9.15
2018-03-19T08:44:56.703Z,8.65
2018-03-19T08:47:28.674Z,9.00
2018-03-19T08:49:56.694Z,8.55
2018-03-19T08:52:29.426Z,8.82
2018-03-19T08:54:57.434Z,9.25
2018-03-19T08:57:27.090Z,9.10
2018-03-19T08:59:59.862Z,8.43
2018-03-19T09:02:27.865Z,8.02
2018-03-19T09:04:56.839Z,7.07
2018-03-19T09:07:31.206Z,7.55
2018-03-19T09:09:59.257Z,8.00
2018-03-19T09:12:27.257Z,8.90
2018-03-19T09:14:55.266Z,7.78
2018-03-19T09:17:26.818Z,8.07
2018-03-19T09:19:54.830Z,8.40
2018-03-19T09:22:23.627Z,8.93
2018-03-19T09:24:51.641Z,7.03
2018-03-19T09:27:19.657Z,9.45
2018-03-19T09:29:47.706Z,7.93
2018-03-19T09:32:35.690Z,8.13
2018-03-19T09:35:11.483Z,9.00
2018-03-19T09:37:39.449Z,7.50
2018-03-19T09:40:10.482Z,8.48
2018-03-19T09:42:44.194Z,9.02
2018-03-19T09:45:29.150Z,7.65
2018-03-19T09:48:09.253Z,9.60
2018-03-19T09:50:42.433Z,8.25
2018-03-19T09:53:11.309Z,8.82
2018-03-19T09:55:44.094Z,8.52
2018-03-19T09:58:14.801Z,8.63
2018-03-19T10:00:43.713Z,7.82
2018-03-19T10:03:14.438Z,8.85
2018-03-19T10:05:42.477Z,8.98
2018-03-19T10:08:12.198Z,8.13
2018-03-19T10:10:43.742Z,9.15
2018-03-19T10:13:20.193Z,9.18
2018-03-19T10:15:50.132Z,9.75
2018-03-19T10:18:21.992Z,8.65
2018-03-19T10:20:55.698Z,7.47
2018-03-19T10:23:23.703Z,9.45
2018-03-19T10:26:03.066Z,8.20
2018-03-19T10:28:44.769Z,8.75
2018-03-19T10:31:22.241Z,8.30
2018-03-19T10:33:54.758Z,9.65
2018-03-19T10:36:28.629Z,8.63
2018-03-19T10:38:59.445Z,8.80
2018-03-19T10:41:28.353Z,10.07
2018-03-19T10:43:56.360Z,9.10
2018-03-19T10:46:28.317Z,10.65
2018-03-19T10:48:58.322Z,9.38
2018-03-19T10:51:27.209Z,8.13
2018-03-19T10:53:58.661Z,8.60
2018-03-19T10:56:26.666Z,9.57
2018-03-19T10:58:55.477Z,8.85
2018-03-19T11:01:30.025Z,10.50
2018-03-19T11:04:01.576Z,8.95
2018-03-19T11:06:35.337Z,9.35
2018-03-19T11:09:10.645Z,10.48
2018-03-19T11:11:39.532Z,9.48
2018-03-19T11:14:07.546Z,10.40
2018-03-19T11:16:44.553Z,10.45
2018-03-19T11:19:15.825Z,10.25
2018-03-19T11:22:00.777Z,10.55
2018-03-19T11:24:29.339Z,10.00
2018-03-19T11:27:00.834Z,10.45
2018-03-19T11:29:29.820Z,9.50
2018-03-19T11:31:57.851Z,10.38
2018-03-19T11:34:25.864Z,9.55
2018-03-19T11:36:55.889Z,9.23
2018-03-19T11:39:27.705Z,10.48
2018-03-19T11:41:59.399Z,10.63
2018-03-19T11:44:27.405Z,10.65
2018-03-19T11:46:55.429Z,9.70
2018-03-19T11:49:42.857Z,10.50
2018-03-19T11:52:14.525Z,10.45
2018-03-19T11:54:44.441Z,10.52
2018-03-19T11:57:13.409Z,10.98
2018-03-19T11:59:43.356Z,11.30
2018-03-19T12:02:15.173Z,11.45
2018-03-19T12:04:44.085Z,9.00
2018-03-19T12:07:12.127Z,10.05
2018-03-19T12:09:43.777Z,11.07
2018-03-19T12:12:32.408Z,8.65
2018-03-19T12:15:01.357Z,10.38
2018-03-19T12:17:30.349Z,10.40
2018-03-19T12:19:58.364Z,10.13
2018-03-19T12:22:27.305Z,10.50
2018-03-19T12:24:59.780Z,9.15
2018-03-19T12:27:27.804Z,9.68
2018-03-19T12:29:55.817Z,11.23
2018-03-19T12:32:24.737Z,15.48
2018-03-19T12:34:59.136Z,10.82
2018-03-19T12:37:28.052Z,9.73
2018-03-19T12:40:00.899Z,10.25
2018-03-19T12:42:28.917Z,9.30
2018-03-19T12:45:03.369Z,8.80
2018-03-19T12:47:33.277Z,9.50
2018-03-19T12:50:01.281Z,9.30
2018-03-19T12:52:29.321Z,9.70
2018-03-19T12:54:57.340Z,9.25
2018-03-19T12:57:26.157Z,9.23
2018-03-19T12:59:55.052Z,10.30
2018-03-19T13:02:24.976Z,12.85
2018-03-19T13:04:56.672Z,10.45
2018-03-19T13:07:25.648Z,9.35
2018-03-19T13:09:53.672Z,11.55
2018-03-19T13:12:25.180Z,10.77
2018-03-19T13:14:55.872Z,10.77
2018-03-19T13:17:25.828Z,10.60
2018-03-19T13:19:57.524Z,10.85
2018-03-19T13:22:26.444Z,9.75
2018-03-19T13:24:54.468Z,9.90
2018-03-19T13:27:23.245Z,9.18
2018-03-19T13:29:51.260Z,9.75
2018-03-19T13:32:22.677Z,9.93
2018-03-19T13:34:51.456Z,9.73
2018-03-19T13:37:20.240Z,10.05
2018-03-19T13:39:49.039Z,10.40
2018-03-19T13:42:18.732Z,11.55
2018-03-19T13:44:48.648Z,10.85
2018-03-19T13:47:16.664Z,10.50
2018-03-19T13:49:44.688Z,10.67
2018-03-19T13:52:13.592Z,10.70
2018-03-19T13:54:41.604Z,10.17
2018-03-19T13:57:10.392Z,11.27
2018-03-19T13:59:43.296Z,10.60
2018-03-19T14:02:12.301Z,11.60
2018-03-19T14:04:40.311Z,9.60
2018-03-19T14:07:14.952Z,11.48
2018-03-19T14:09:42.976Z,9.73
2018-03-19T14:12:12.765Z,10.40
2018-03-19T14:14:44.619Z,10.50
2018-03-19T14:17:12.685Z,10.70
2018-03-19T14:19:40.671Z,11.35
2018-03-19T14:22:12.020Z,10.35
2018-03-19T14:24:40.040Z,9.85
2018-03-19T14:27:10.235Z,10.52
2018-03-19T14:29:40.152Z,9.48
2018-03-19T14:32:11.882Z,11.10
2018-03-19T14:34:39.900Z,11.55
2018-03-19T14:37:11.632Z,11.55
2018-03-19T14:39:42.312Z,12.02
2018-03-19T14:42:10.316Z,19.95
2018-03-19T14:44:38.336Z,9.43
2018-03-19T14:47:07.252Z,10.50
2018-03-19T14:49:40.249Z,11.98
2018-03-19T14:52:09.238Z,12.75
2018-03-19T14:54:38.132Z,10.50
2018-03-19T14:57:06.164Z,10.18
2018-03-19T14:59:39.648Z,12.27
2018-03-19T15:02:07.672Z,11.93
2018-03-19T15:04:36.656Z,10.25
2018-03-19T15:07:05.376Z,9.80
2018-03-19T15:09:34.272Z,9.43
2018-03-19T15:12:06.383Z,8.85
2018-03-19T15:14:41.903Z,11.35
2018-03-19T15:17:19.843Z,9.20
2018-03-19T15:19:49.859Z,10.18
2018-03-19T15:22:21.000Z,10.35
2018-03-19T15:25:06.352Z,9.40
2018-03-19T15:27:35.091Z,9.85
2018-03-19T15:30:05.016Z,9.60
2018-03-19T15:32:35.699Z,10.52
2018-03-19T15:35:03.712Z,10.00
2018-03-19T15:37:34.376Z,9.98
2018-03-19T15:40:04.360Z,10.60
2018-03-19T15:42:38.199Z,10.93
2018-03-19T15:45:06.983Z,10.13
2018-03-19T15:47:41.739Z,11.07
2018-03-19T15:50:09.750Z,10.63
2018-03-19T15:52:38.562Z,11.52
2018-03-19T15:55:08.563Z,11.88
2018-03-19T15:57:36.667Z,10.27
2018-03-19T16:03:23.515Z,10.65
2018-03-19T16:06:03.096Z,11.70
2018-03-19T16:08:38.926Z,12.85
2018-03-19T16:14:01.979Z,11.15
2018-03-19T16:16:30.011Z,10.18
2018-03-19T16:19:06.611Z,12.20
2018-03-19T16:21:49.907Z,10.95
2018-03-19T16:24:19.315Z,10.35
2018-03-19T16:29:43.762Z,11.07
2018-03-19T16:32:23.287Z,10.65
2018-03-19T16:34:52.303Z,10.27
2018-03-19T16:37:32.759Z,10.85
2018-03-19T16:40:16.655Z,11.55
2018-03-19T16:42:53.439Z,12.50
2018-03-19T16:45:23.389Z,12.73
2018-03-19T16:47:51.400Z,11.57
2018-03-19T16:50:25.799Z,11.23
2018-03-19T16:52:55.979Z,12.23
2018-03-19T16:55:23.998Z,12.57
2018-03-19T16:57:53.771Z,10.88
2018-03-19T17:00:26.055Z,11.10
2018-03-19T17:03:07.339Z,11.23
2018-03-19T17:05:35.450Z,11.38
2018-03-19T17:08:04.398Z,11.88
2018-03-19T17:10:34.407Z,11.63
2018-03-19T17:13:02.415Z,13.43
2018-03-19T17:15:32.099Z,12.60
2018-03-19T17:18:01.095Z,15.38
2018-03-19T17:20:39.363Z,17.00
2018-03-19T17:26:26.182Z,11.55
2018-03-19T17:29:00.506Z,15.63
2018-03-19T17:31:35.433Z,17.95
2018-03-19T17:34:04.455Z,12.85
2018-03-19T17:36:33.842Z,12.63
2018-03-19T17:42:00.158Z,11.10
2018-03-19T17:44:28.799Z,10.55
2018-03-19T17:47:02.686Z,12.18
2018-03-19T17:49:32.710Z,10.63
2018-03-19T17:54:59.675Z,10.90
2018-03-19T17:57:29.747Z,12.30
2018-03-19T17:59:57.766Z,10.82
2018-03-19T18:02:25.782Z,12.37
2018-03-19T18:04:53.790Z,10.77
2018-03-19T18:07:22.854Z,11.65
2018-03-19T18:09:57.330Z,10.85
2018-03-19T18:12:38.623Z,11.70
2018-03-19T18:15:12.366Z,11.65
2018-03-19T18:17:41.186Z,10.73
2018-03-19T18:20:16.727Z,11.98
2018-03-19T18:22:45.772Z,11.45
2018-03-19T18:25:16.606Z,13.32
2018-03-19T18:27:50.378Z,11.68
2018-03-19T18:30:26.218Z,12.05
2018-03-19T18:32:54.255Z,14.07
2018-03-19T18:35:40.339Z,12.95
2018-03-19T18:38:19.474Z,12.00
2018-03-19T18:40:58.302Z,11.05
2018-03-19T18:43:30.319Z,11.00
2018-03-19T18:46:01.878Z,12.25
2018-03-19T18:48:30.879Z,12.32
2018-03-19T18:51:04.426Z,11.82
2018-03-19T18:53:33.370Z,13.30
2018-03-19T18:56:14.098Z,12.25
2018-03-19T18:58:42.234Z,12.65
2018-03-19T19:01:20.555Z,13.88
2018-03-19T19:03:53.398Z,12.82
2018-03-19T19:06:22.177Z,12.32
2018-03-19T19:08:56.626Z,12.13
2018-03-19T19:11:24.630Z,12.37
2018-03-19T19:13:52.849Z,12.48
2018-03-19T19:16:28.606Z,11.00
2018-03-19T19:18:57.418Z,10.68
2018-03-19T19:21:25.442Z,11.82
2018-03-19T19:23:53.462Z,13.13
2018-03-19T19:26:21.474Z,12.35
2018-03-19T19:28:51.482Z,11.60
2018-03-19T19:31:20.387Z,11.50
2018-03-19T19:33:57.024Z,11.70
2018-03-19T19:36:27.706Z,11.02
2018-03-19T19:38:55.726Z,11.40
2018-03-19T19:41:23.770Z,12.13
2018-03-19T19:43:59.197Z,10.95
2018-03-19T19:46:28.464Z,12.27
2018-03-19T19:49:00.906Z,11.55
2018-03-19T19:51:34.434Z,11.82
2018-03-19T19:54:04.625Z,11.50
2018-03-19T19:56:33.356Z,11.70
2018-03-19T19:59:01.405Z,11.32
2018-03-19T20:01:29.462Z,11.88
2018-03-19T20:06:55.189Z,12.05
2018-03-19T20:09:23.258Z,11.85
2018-03-19T20:11:51.266Z,11.38
2018-03-19T20:14:23.638Z,11.27
2018-03-19T20:16:52.692Z,11.12
2018-03-19T20:19:26.189Z,13.95
2018-03-19T20:21:54.254Z,11.18
2018-03-19T20:24:29.721Z,9.98
2018-03-19T20:27:12.218Z,9.25
2018-03-19T20:29:40.262Z,9.25
2018-03-19T20:32:09.210Z,8.88
2018-03-19T20:34:37.230Z,9.80
2018-03-19T20:37:06.386Z,9.77
2018-03-19T20:39:34.429Z,8.57
2018-03-19T20:42:02.453Z,9.55
2018-03-19T20:44:30.498Z,9.95
2018-03-19T20:47:02.866Z,10.13
2018-03-19T20:49:35.949Z,9.65
2018-03-19T20:52:15.342Z,7.87
2018-03-19T20:54:44.341Z,9.20
2018-03-19T20:57:14.077Z,10.48
2018-03-19T20:59:44.073Z,9.93
2018-03-19T21:02:12.113Z,11.50
2018-03-19T21:04:42.083Z,9.02
2018-03-19T21:07:11.109Z,10.02
2018-03-19T21:09:46.734Z,10.15
2018-03-19T21:12:16.742Z,10.95
2018-03-19T21:14:45.746Z,10.63
2018-03-19T21:17:13.839Z,10.52
2018-03-19T21:19:41.869Z,9.95
2018-03-19T21:22:17.327Z,9.05
2018-03-19T21:24:45.397Z,9.93
2018-03-19T21:27:18.745Z,9.73
2018-03-19T21:29:52.454Z,8.73
2018-03-19T21:32:20.473Z,10.35
2018-03-19T21:34:49.318Z,9.27
2018-03-19T21:37:18.394Z,10.90
2018-03-19T21:39:46.457Z,10.30
2018-03-19T21:42:38.141Z,9.55
2018-03-19T21:45:12.565Z,10.02
2018-03-19T21:47:42.665Z,9.68
2018-03-19T21:50:10.737Z,10.75
2018-03-19T21:52:39.841Z,9.73
2018-03-19T21:55:14.274Z,9.38
2018-03-19T21:57:42.292Z,9.90
2018-03-19T22:00:10.353Z,8.65
2018-03-19T22:02:49.227Z,9.25
2018-03-19T22:05:22.413Z,8.40
2018-03-19T22:07:57.859Z,9.43
2018-03-19T22:10:44.441Z,9.45
2018-03-19T22:13:22.246Z,9.00
2018-03-19T22:15:53.353Z,9.43
2018-03-19T22:18:23.308Z,9.38
2018-03-19T22:20:56.981Z,9.77
2018-03-19T22:23:26.980Z,10.75
2018-03-19T22:25:55.081Z,9.90
2018-03-19T22:28:46.477Z,9.85
2018-03-19T22:31:39.893Z,9.50
2018-03-19T22:34:18.885Z,9.00
2018-03-19T22:36:47.437Z,8.73
2018-03-19T22:39:25.714Z,9.10
2018-03-19T22:44:48.824Z,9.80
2018-03-19T22:47:26.977Z,10.80
2018-03-19T22:49:57.549Z,9.57
2018-03-19T22:52:26.584Z,9.32
2018-03-19T22:55:07.993Z,10.10
2018-03-19T22:57:54.820Z,10.70
2018-03-19T23:00:40.465Z,8.57
2018-03-19T23:03:08.490Z,9.38
2018-03-19T23:05:39.877Z,9.07
2018-03-19T23:08:08.860Z,8.43
2018-03-19T23:10:40.599Z,9.32
2018-03-19T23:13:10.577Z,8.15
2018-03-19T23:15:49.809Z,8.75
2018-03-19T23:18:40.784Z,9.95
2018-03-19T23:21:20.336Z,9.20
2018-03-19T23:23:50.393Z,9.90
2018-03-19T23:26:25.328Z,10.82
2018-03-19T23:28:53.361Z,9.52
2018-03-19T23:31:21.393Z,9.40
2018-03-19T23:34:07.889Z,9.60
2018-03-19T23:36:40.313Z,10.60
2018-03-19T23:39:09.325Z,9.90
2018-03-19T23:41:57.737Z,10.43
2018-03-19T23:44:39.764Z,11.20
2018-03-19T23:47:13.248Z,11.65
2018-03-19T23:49:48.939Z,11.52
2018-03-19T23:52:19.657Z,10.45
2018-03-19T23:55:00.377Z,9.88
2018-03-19T23:57:35.408Z,8.50
